Main page
METAR-TAF:

METAR-TAF

Airports :

Arthur N. Neu Airport

Carroll, Iowa, United States

latitude: 42-03N, longitude: 094-47W, elevation: 1230 ft

Current weather observation

The report was made 21 minutes ago, at 04:15 UTC
Wind 3 mph from the South
Temperature 68°F
Humidity 100%
Pressure 29.95 in. Hg
Visibility: 10 miles
Few clouds at a height of 1800 ft
Scattered clouds at a height of 3000 ft
Broken clouds at a height of 3500 ft

METAR: KCIN 190415Z AUTO 18003KT 10SM FEW018 SCT030 BKN035 20/20 A2995 RMK AO2

Time: 23:36 (04:36 UTC)


TAF: missing

Weather observations and forecasts of more than 4000 airports (METAR and TAF reports).

The available stations are represented by yellow and red dots on the map.

Hover mouse over dot to see the name of the station.

Then click to see weather observations and forecasts.

To change the map : click on the green buttons with a black cross to zoom in, on the green button with a dash to zoom out, or on the green arrows for adjacent maps.


METAR-TAF: